Claxton — WCU9257 — position and weather

sailwx.info

Track history (hours):
 
Tides and Currents Weather Stations Pressure Air Temp Water Temp Dewpoint Dewpoint Depression Visibility Wind Speed Wind Dir Waves Ship Positions

Claxton

Owner: G & H TOWING COMPANY, GALVESTON, TX. More information available from US FCC via Universal Licensing System and Coast Guard Vessel Documentation Center.

Last reported at 2018-May-21 11:04 UTC. Time now 2018-May-21 18:59 UTC.
Position N 28°57' W 095°18'.

Length 27 m; draft 4.9 m.

Type: Tug. MMSI: 366921670.

Date/timePositionNaut miles runAvg speedWind from/ knotsBaromVisibWave heightAir tempDewpointWater temp
2018-May-21 11:04N 28°57' W 095°18'0 0.0
2018-May-21 11:00N 28°57' W 095°18'0 0.0
2018-May-21 10:06N 28°57' W 095°18'0 0.0
2018-May-21 09:59N 28°57' W 095°18'0 0.0
2018-May-21 09:24N 28°57' W 095°18'0 0.0
2018-May-21 08:36N 28°57' W 095°18'0 0.0
2018-May-21 01:06N 28°57' W 095°18'0 0.0
2018-May-21 01:00N 28°57' W 095°18'0 0.0
2018-May-21 00:27N 28°57' W 095°18'0 0.0
2018-May-20 20:14N 28°57' W 095°18'0 0.0
2018-May-20 19:57N 28°57' W 095°18'0 0.0
2018-May-20 18:05N 28°57' W 095°18'0 0.0
2018-May-20 11:36N 28°57' W 095°18'0 0.0
2018-May-20 11:29N 28°57' W 095°18'0 0.0
2018-May-20 11:00N 28°57' W 095°18'0 0.0
2018-May-20 09:33N 28°57' W 095°18'0 0.0
2018-May-20 09:26N 28°57' W 095°18'0 0.0
2018-May-20 08:53N 28°57' W 095°18'0 0.0
2018-May-20 08:28N 28°57' W 095°18'0 0.0
2018-May-20 07:59N 28°57' W 095°18'0 0.0
2018-May-20 07:30N 28°57' W 095°18'0 0.0
2018-May-19 12:53N 28°57' W 095°18'0 0.0
2018-May-19 11:36N 28°57' W 095°18'0 2.7
2018-May-19 11:27N 28°56' W 095°18'6 8.3
2018-May-19 10:47N 28°58' W 095°12'3 9.6
2018-May-19 10:30N 28°59' W 095°09'5 9.6
2018-May-19 10:00N 29°01' W 095°05'5 9.2
2018-May-19 09:30N 29°04' W 095°01'5 9.0
2018-May-19 09:00N 29°07' W 094°56'5 9.5
2018-May-19 08:30N 29°09' W 094°51'5 9.1
2018-May-19 08:00N 29°11' W 094°47'9 5.8
2018-May-19 06:26N 29°20' W 094°46'2 0.7
2018-May-19 03:53N 29°19' W 094°47'1 3.4
2018-May-19 03:30N 29°19' W 094°48'0 0.1
2018-May-19 02:35N 29°19' W 094°48'1 0.8
2018-May-19 01:03N 29°19' W 094°47'0 0.0
2018-May-19 01:00N 29°19' W 094°47'0 0.8
2018-May-19 00:28N 29°19' W 094°47'0 0.1
2018-May-19 00:00N 29°19' W 094°47'1 2.1
2018-May-18 23:28N 29°20' W 094°47'1 2.4
2018-May-18 23:00N 29°19' W 094°47'1 0.9
2018-May-18 22:27N 29°19' W 094°47'0 0.0
2018-May-18 21:21N 29°19' W 094°47'0 0.0
2018-May-18 19:57N 29°19' W 094°47'0 0.0
2018-May-18 16:45N 29°19' W 094°47'0 0.3
2018-May-18 15:37N 29°19' W 094°47'1 6.9
2018-May-18 15:29N 29°19' W 094°48'0 0.1
2018-May-18 14:59N 29°19' W 094°48'1 0.5
2018-May-18 12:19N 29°19' W 094°47'0 0.7
2018-May-18 11:52N 29°19' W 094°47'0 0.0
2018-May-18 11:28N 29°19' W 094°47'0 0.0
2018-May-18 10:58N 29°19' W 094°47'0 0.0
2018-May-18 10:19N 29°19' W 094°47'0 0.0
2018-May-18 09:55N 29°19' W 094°47'0 0.0
2018-May-18 09:25N 29°19' W 094°47'0 0.0
2018-May-18 08:55N 29°19' W 094°47'0 0.0
2018-May-18 08:25N 29°19' W 094°47'0 0.0
2018-May-18 07:58N 29°19' W 094°47'0 0.0
2018-May-18 06:49N 29°19' W 094°47'0 0.0
2018-May-18 06:01N 29°19' W 094°47'0 0.0
2018-May-18 05:55N 29°19' W 094°47'0 0.0
2018-May-18 05:25N 29°19' W 094°47'0 0.0
2018-May-18 03:52N 29°19' W 094°47'0 0.0
2018-May-18 03:24N 29°19' W 094°47'0 0.0
2018-May-18 02:57N 29°19' W 094°47'1 2.6
2018-May-18 02:30N 29°19' W 094°48'0 0.3
2018-May-18 02:00N 29°19' W 094°48'2 4.6
2018-May-18 01:30N 29°20' W 094°46'5 9.3
2018-May-18 01:00N 29°22' W 094°51'2 3.4
2018-May-18 00:30N 29°23' W 094°53'3 6.7
2018-May-18 00:00N 29°22' W 094°49'3 6.5
2018-May-17 23:30N 29°19' W 094°47'0 0.0
2018-May-17 22:52N 29°19' W 094°47'0 0.0
2018-May-17 22:28N 29°19' W 094°47'0 0.0
2018-May-17 21:55N 29°19' W 094°47'0 0.0
2018-May-17 21:15N 29°19' W 094°47'1 6.0
2018-May-17 21:00N 29°21' W 094°46'6 5.1
2018-May-17 19:46N 29°22' W 094°53'1 0.2
2018-May-17 16:59N 29°23' W 094°54'0 0.4
2018-May-17 16:25N 29°23' W 094°53'0 0.1
2018-May-17 13:10N 29°23' W 094°54'0 0.3
2018-May-17 13:00N 29°23' W 094°54'4 7.2
2018-May-17 12:30N 29°22' W 094°50'4 6.7
2018-May-17 11:58N 29°19' W 094°47'2 0.5
2018-May-17 08:51N 29°19' W 094°49'0 0.0
2018-May-17 07:20N 29°19' W 094°49'0 0.7
2018-May-17 06:59N 29°18' W 094°49'2 3.5
2018-May-17 06:30N 29°19' W 094°47'0 0.2
2018-May-17 05:56N 29°19' W 094°47'0 0.0
2018-May-17 05:29N 29°19' W 094°47'0 0.0
2018-May-17 05:00N 29°19' W 094°47'0 0.0
2018-May-17 04:31N 29°19' W 094°47'0 0.0
2018-May-17 03:58N 29°19' W 094°47'0 0.0
2018-May-17 03:30N 29°19' W 094°47'0 0.0
2018-May-17 03:00N 29°19' W 094°47'0 0.0
2018-May-17 02:30N 29°19' W 094°47'0 0.0
2018-May-17 02:01N 29°19' W 094°47'0 0.0
2018-May-17 01:30N 29°19' W 094°47'0 0.0
2018-May-17 01:01N 29°19' W 094°47'0 0.5
2018-May-17 00:30N 29°19' W 094°47'0 0.5
2018-May-17 00:00N 29°19' W 094°47'0 0.4
2018-May-16 23:30N 29°20' W 094°47'0 0.8
2018-May-16 23:00N 29°19' W 094°47'0 0.0
2018-May-16 22:27N 29°19' W 094°47'0 0.0
2018-May-16 21:22N 29°19' W 094°47'0 0.0
2018-May-16 17:15N 29°19' W 094°47'0 0.0
2018-May-16 15:52N 29°19' W 094°47'0 0.1
2018-May-16 14:37N 29°19' W 094°47'0 0.0
2018-May-16 14:16N 29°19' W 094°47'0 0.0
2018-May-16 13:46N 29°19' W 094°47'0 0.0
2018-May-16 13:25N 29°19' W 094°47'0 0.0
2018-May-16 12:49N 29°19' W 094°47'0 0.0
2018-May-16 12:28N 29°19' W 094°47'0 0.0
2018-May-16 11:58N 29°19' W 094°47'0 0.0
2018-May-16 11:28N 29°19' W 094°47'0 0.0
2018-May-16 10:46N 29°19' W 094°47'0 0.0
2018-May-16 10:22N 29°19' W 094°47'0 0.0
2018-May-16 09:46N 29°19' W 094°47'0 0.0
2018-May-16 09:16N 29°19' W 094°47'0 0.0
2018-May-16 08:55N 29°19' W 094°47'0 0.0
2018-May-16 08:10N 29°19' W 094°47'0 0.0
2018-May-16 07:49N 29°19' W 094°47'0 0.0
2018-May-16 07:19N 29°19' W 094°47'0 0.0
2018-May-16 06:58N 29°19' W 094°47'0 0.0
2018-May-16 06:28N 29°19' W 094°47'0 0.0
2018-May-16 05:37N 29°19' W 094°47'0 0.0
2018-May-16 05:25N 29°19' W 094°47'0 0.0
2018-May-16 04:55N 29°19' W 094°47'0 0.0
2018-May-16 04:28N 29°19' W 094°47'0 0.0
2018-May-16 03:52N 29°19' W 094°47'0 0.0
2018-May-16 03:25N 29°19' W 094°47'0 0.0
2018-May-16 02:49N 29°19' W 094°47'0 0.0
2018-May-16 02:22N 29°19' W 094°47'0 0.0
2018-May-16 01:55N 29°19' W 094°47'0 0.0
2018-May-16 01:25N 29°19' W 094°47'0 0.0
2018-May-16 00:58N 29°19' W 094°47'0 0.0
2018-May-15 22:54N 29°19' W 094°47'2 0.5
2018-May-15 19:51N 29°18' W 094°49'2 0.2
2018-May-15 12:57N 29°19' W 094°47'0 0.1
2018-May-15 12:30N 29°19' W 094°47'0 0.4
2018-May-15 12:00N 29°19' W 094°47'1 1.5
2018-May-15 11:30N 29°20' W 094°47'1 1.7
2018-May-15 10:57N 29°19' W 094°47'0 0.0
2018-May-15 10:30N 29°19' W 094°47'0 0.0
2018-May-15 10:00N 29°19' W 094°47'0 0.0
2018-May-15 09:24N 29°19' W 094°47'0 0.0
2018-May-15 08:54N 29°19' W 094°47'0 0.0
2018-May-15 08:21N 29°19' W 094°47'0 0.0
2018-May-15 07:57N 29°19' W 094°47'0 0.0
2018-May-15 07:21N 29°19' W 094°47'0 0.0
2018-May-15 07:00N 29°19' W 094°47'0 0.0
2018-May-15 06:30N 29°19' W 094°47'0 0.0
2018-May-15 05:48N 29°19' W 094°47'2 5.6
2018-May-15 05:30N 29°19' W 094°49'1 2.9
2018-May-15 05:00N 29°19' W 094°47'0 0.5
2018-May-15 04:05N 29°19' W 094°47'0 0.0
2018-May-15 03:59N 29°19' W 094°47'0 0.0
2018-May-15 03:20N 29°19' W 094°47'0 0.0
2018-May-15 02:17N 29°19' W 094°47'0 0.0
2018-May-15 01:50N 29°19' W 094°47'0 0.0
2018-May-15 01:23N 29°19' W 094°47'0 0.0
2018-May-15 00:56N 29°19' W 094°47'0 0.0
2018-May-14 17:36N 29°19' W 094°47'1 6.4
2018-May-14 17:28N 29°19' W 094°48'0 0.7
2018-May-14 16:58N 29°19' W 094°48'1 0.3
2018-May-14 12:36N 29°19' W 094°47'0 0.8
2018-May-14 12:30N 29°19' W 094°47'2 4.3
2018-May-14 12:00N 29°21' W 094°48'5 9.3
2018-May-14 11:29N 29°23' W 094°53'0 0.1
2018-May-14 08:22N 29°23' W 094°53'0 0.0
2018-May-14 06:40N 29°23' W 094°53'0 0.0
2018-May-14 06:28N 29°23' W 094°53'0 0.0
2018-May-13 23:13N 29°22' W 094°53'0 0.1
2018-May-13 23:00N 29°22' W 094°53'0 0.2
2018-May-13 20:23N 29°22' W 094°53'0 0.3
2018-May-13 20:00N 29°22' W 094°53'0 0.1
2018-May-13 19:30N 29°22' W 094°53'0 0.9
2018-May-13 19:01N 29°22' W 094°54'1 2.0
2018-May-13 18:28N 29°23' W 094°52'5 9.6
2018-May-13 18:00N 29°21' W 094°48'2 0.1
2018-May-13 02:04N 29°19' W 094°47'1 7.5
2018-May-13 01:58N 29°19' W 094°48'0 1.0
2018-May-13 01:29N 29°19' W 094°47'0 0.4
2018-May-13 00:35N 29°19' W 094°47'0 0.2
2018-May-13 00:23N 29°19' W 094°47'3 7.2
2018-May-12 23:55N 29°22' W 094°49'4 3.2
2018-May-12 22:49N 29°22' W 094°53'1 0.1
2018-May-12 18:11N 29°23' W 094°53'0 0.1
2018-May-12 15:54N 29°23' W 094°54'1 1.6
2018-May-12 15:31N 29°22' W 094°53'1 2.6
2018-May-12 14:57N 29°23' W 094°52'510.0
2018-May-12 14:28N 29°21' W 094°47'2 0.5
2018-May-12 10:54N 29°19' W 094°47'0 0.0
2018-May-12 10:28N 29°19' W 094°47'0 0.0
2018-May-12 09:54N 29°19' W 094°47'1 0.1
2018-May-12 00:02N 29°19' W 094°48'0 0.3
2018-May-12 00:00N 29°19' W 094°48'0 0.1
2018-May-11 23:21N 29°19' W 094°48'1 2.6
2018-May-11 23:00N 29°19' W 094°47'0 0.3
2018-May-11 21:11N 29°19' W 094°47'1 5.6
2018-May-11 20:58N 29°19' W 094°48'0 0.6
2018-May-11 20:30N 29°19' W 094°48'1 1.1
2018-May-11 20:01N 29°19' W 094°48'1 1.4
2018-May-11 19:30N 29°19' W 094°49'2 2.9
2018-May-11 18:58N 29°19' W 094°47'0 0.0
2018-May-11 18:25N 29°19' W 094°47'0 0.0
2018-May-11 16:28N 29°19' W 094°47'2 3.4
2018-May-11 16:00N 29°19' W 094°49'0 0.9
2018-May-11 15:30N 29°19' W 094°49'0 1.0
2018-May-11 15:00N 29°19' W 094°49'  
Track history (hours):
 
Tides and Currents Weather Stations Pressure Air Temp Water Temp Dewpoint Dewpoint Depression Visibility Wind Speed Wind Dir Waves Ship Positions

Claxton

Owner: G & H TOWING COMPANY, GALVESTON, TX. More information available from US FCC via Universal Licensing System and Coast Guard Vessel Documentation Center.

Last reported at 2018-May-21 11:04 UTC. Time now 2018-May-21 18:59 UTC.
Position N 28°57' W 095°18'.

Length 27 m; draft 4.9 m.

Type: Tug. MMSI: 366921670.

Date/timePositionNaut miles runAvg speedWind from/ knotsBaromVisibWave heightAir tempDewpointWater temp
2018-May-21 11:04N 28°57' W 095°18'0 0.0
2018-May-21 11:00N 28°57' W 095°18'0 0.0
2018-May-21 10:06N 28°57' W 095°18'0 0.0
2018-May-21 09:59N 28°57' W 095°18'0 0.0
2018-May-21 09:24N 28°57' W 095°18'0 0.0
2018-May-21 08:36N 28°57' W 095°18'0 0.0
2018-May-21 01:06N 28°57' W 095°18'0 0.0
2018-May-21 01:00N 28°57' W 095°18'0 0.0
2018-May-21 00:27N 28°57' W 095°18'0 0.0
2018-May-20 20:14N 28°57' W 095°18'0 0.0
2018-May-20 19:57N 28°57' W 095°18'0 0.0
2018-May-20 18:05N 28°57' W 095°18'0 0.0
2018-May-20 11:36N 28°57' W 095°18'0 0.0
2018-May-20 11:29N 28°57' W 095°18'0 0.0
2018-May-20 11:00N 28°57' W 095°18'0 0.0
2018-May-20 09:33N 28°57' W 095°18'0 0.0
2018-May-20 09:26N 28°57' W 095°18'0 0.0
2018-May-20 08:53N 28°57' W 095°18'0 0.0
2018-May-20 08:28N 28°57' W 095°18'0 0.0
2018-May-20 07:59N 28°57' W 095°18'0 0.0
2018-May-20 07:30N 28°57' W 095°18'0 0.0
2018-May-19 12:53N 28°57' W 095°18'0 0.0
2018-May-19 11:36N 28°57' W 095°18'0 2.7
2018-May-19 11:27N 28°56' W 095°18'6 8.3
2018-May-19 10:47N 28°58' W 095°12'3 9.6
2018-May-19 10:30N 28°59' W 095°09'5 9.6
2018-May-19 10:00N 29°01' W 095°05'5 9.2
2018-May-19 09:30N 29°04' W 095°01'5 9.0
2018-May-19 09:00N 29°07' W 094°56'5 9.5
2018-May-19 08:30N 29°09' W 094°51'5 9.1
2018-May-19 08:00N 29°11' W 094°47'9 5.8
2018-May-19 06:26N 29°20' W 094°46'2 0.7
2018-May-19 03:53N 29°19' W 094°47'1 3.4
2018-May-19 03:30N 29°19' W 094°48'0 0.1
2018-May-19 02:35N 29°19' W 094°48'1 0.8
2018-May-19 01:03N 29°19' W 094°47'0 0.0
2018-May-19 01:00N 29°19' W 094°47'0 0.8
2018-May-19 00:28N 29°19' W 094°47'0 0.1
2018-May-19 00:00N 29°19' W 094°47'1 2.1
2018-May-18 23:28N 29°20' W 094°47'1 2.4
2018-May-18 23:00N 29°19' W 094°47'1 0.9
2018-May-18 22:27N 29°19' W 094°47'0 0.0
2018-May-18 21:21N 29°19' W 094°47'0 0.0
2018-May-18 19:57N 29°19' W 094°47'0 0.0
2018-May-18 16:45N 29°19' W 094°47'0 0.3
2018-May-18 15:37N 29°19' W 094°47'1 6.9
2018-May-18 15:29N 29°19' W 094°48'0 0.1
2018-May-18 14:59N 29°19' W 094°48'1 0.5
2018-May-18 12:19N 29°19' W 094°47'0 0.7
2018-May-18 11:52N 29°19' W 094°47'0 0.0
2018-May-18 11:28N 29°19' W 094°47'0 0.0
2018-May-18 10:58N 29°19' W 094°47'0 0.0
2018-May-18 10:19N 29°19' W 094°47'0 0.0
2018-May-18 09:55N 29°19' W 094°47'0 0.0
2018-May-18 09:25N 29°19' W 094°47'0 0.0
2018-May-18 08:55N 29°19' W 094°47'0 0.0
2018-May-18 08:25N 29°19' W 094°47'0 0.0
2018-May-18 07:58N 29°19' W 094°47'0 0.0
2018-May-18 06:49N 29°19' W 094°47'0 0.0
2018-May-18 06:01N 29°19' W 094°47'0 0.0
2018-May-18 05:55N 29°19' W 094°47'0 0.0
2018-May-18 05:25N 29°19' W 094°47'0 0.0
2018-May-18 03:52N 29°19' W 094°47'0 0.0
2018-May-18 03:24N 29°19' W 094°47'0 0.0
2018-May-18 02:57N 29°19' W 094°47'1 2.6
2018-May-18 02:30N 29°19' W 094°48'0 0.3
2018-May-18 02:00N 29°19' W 094°48'2 4.6
2018-May-18 01:30N 29°20' W 094°46'5 9.3
2018-May-18 01:00N 29°22' W 094°51'2 3.4
2018-May-18 00:30N 29°23' W 094°53'3 6.7
2018-May-18 00:00N 29°22' W 094°49'3 6.5
2018-May-17 23:30N 29°19' W 094°47'0 0.0
2018-May-17 22:52N 29°19' W 094°47'0 0.0
2018-May-17 22:28N 29°19' W 094°47'0 0.0
2018-May-17 21:55N 29°19' W 094°47'0 0.0
2018-May-17 21:15N 29°19' W 094°47'1 6.0
2018-May-17 21:00N 29°21' W 094°46'6 5.1
2018-May-17 19:46N 29°22' W 094°53'1 0.2
2018-May-17 16:59N 29°23' W 094°54'0 0.4
2018-May-17 16:25N 29°23' W 094°53'0 0.1
2018-May-17 13:10N 29°23' W 094°54'0 0.3
2018-May-17 13:00N 29°23' W 094°54'4 7.2
2018-May-17 12:30N 29°22' W 094°50'4 6.7
2018-May-17 11:58N 29°19' W 094°47'2 0.5
2018-May-17 08:51N 29°19' W 094°49'0 0.0
2018-May-17 07:20N 29°19' W 094°49'0 0.7
2018-May-17 06:59N 29°18' W 094°49'2 3.5
2018-May-17 06:30N 29°19' W 094°47'0 0.2
2018-May-17 05:56N 29°19' W 094°47'0 0.0
2018-May-17 05:29N 29°19' W 094°47'0 0.0
2018-May-17 05:00N 29°19' W 094°47'0 0.0
2018-May-17 04:31N 29°19' W 094°47'0 0.0
2018-May-17 03:58N 29°19' W 094°47'0 0.0
2018-May-17 03:30N 29°19' W 094°47'0 0.0
2018-May-17 03:00N 29°19' W 094°47'0 0.0
2018-May-17 02:30N 29°19' W 094°47'0 0.0
2018-May-17 02:01N 29°19' W 094°47'0 0.0
2018-May-17 01:30N 29°19' W 094°47'0 0.0
2018-May-17 01:01N 29°19' W 094°47'0 0.5
2018-May-17 00:30N 29°19' W 094°47'0 0.5
2018-May-17 00:00N 29°19' W 094°47'0 0.4
2018-May-16 23:30N 29°20' W 094°47'0 0.8
2018-May-16 23:00N 29°19' W 094°47'0 0.0
2018-May-16 22:27N 29°19' W 094°47'0 0.0
2018-May-16 21:22N 29°19' W 094°47'0 0.0
2018-May-16 17:15N 29°19' W 094°47'0 0.0
2018-May-16 15:52N 29°19' W 094°47'0 0.1
2018-May-16 14:37N 29°19' W 094°47'0 0.0
2018-May-16 14:16N 29°19' W 094°47'0 0.0
2018-May-16 13:46N 29°19' W 094°47'0 0.0
2018-May-16 13:25N 29°19' W 094°47'0 0.0
2018-May-16 12:49N 29°19' W 094°47'0 0.0
2018-May-16 12:28N 29°19' W 094°47'0 0.0
2018-May-16 11:58N 29°19' W 094°47'0 0.0
2018-May-16 11:28N 29°19' W 094°47'0 0.0
2018-May-16 10:46N 29°19' W 094°47'0 0.0
2018-May-16 10:22N 29°19' W 094°47'0 0.0
2018-May-16 09:46N 29°19' W 094°47'0 0.0
2018-May-16 09:16N 29°19' W 094°47'0 0.0
2018-May-16 08:55N 29°19' W 094°47'0 0.0
2018-May-16 08:10N 29°19' W 094°47'0 0.0
2018-May-16 07:49N 29°19' W 094°47'0 0.0
2018-May-16 07:19N 29°19' W 094°47'0 0.0
2018-May-16 06:58N 29°19' W 094°47'0 0.0
2018-May-16 06:28N 29°19' W 094°47'0 0.0
2018-May-16 05:37N 29°19' W 094°47'0 0.0
2018-May-16 05:25N 29°19' W 094°47'0 0.0
2018-May-16 04:55N 29°19' W 094°47'0 0.0
2018-May-16 04:28N 29°19' W 094°47'0 0.0
2018-May-16 03:52N 29°19' W 094°47'0 0.0
2018-May-16 03:25N 29°19' W 094°47'0 0.0
2018-May-16 02:49N 29°19' W 094°47'0 0.0
2018-May-16 02:22N 29°19' W 094°47'0 0.0
2018-May-16 01:55N 29°19' W 094°47'0 0.0
2018-May-16 01:25N 29°19' W 094°47'0 0.0
2018-May-16 00:58N 29°19' W 094°47'0 0.0
2018-May-15 22:54N 29°19' W 094°47'2 0.5
2018-May-15 19:51N 29°18' W 094°49'2 0.2
2018-May-15 12:57N 29°19' W 094°47'0 0.1
2018-May-15 12:30N 29°19' W 094°47'0 0.4
2018-May-15 12:00N 29°19' W 094°47'1 1.5
2018-May-15 11:30N 29°20' W 094°47'1 1.7
2018-May-15 10:57N 29°19' W 094°47'0 0.0
2018-May-15 10:30N 29°19' W 094°47'0 0.0
2018-May-15 10:00N 29°19' W 094°47'0 0.0
2018-May-15 09:24N 29°19' W 094°47'0 0.0
2018-May-15 08:54N 29°19' W 094°47'0 0.0
2018-May-15 08:21N 29°19' W 094°47'0 0.0
2018-May-15 07:57N 29°19' W 094°47'0 0.0
2018-May-15 07:21N 29°19' W 094°47'0 0.0
2018-May-15 07:00N 29°19' W 094°47'0 0.0
2018-May-15 06:30N 29°19' W 094°47'0 0.0
2018-May-15 05:48N 29°19' W 094°47'2 5.6
2018-May-15 05:30N 29°19' W 094°49'1 2.9
2018-May-15 05:00N 29°19' W 094°47'0 0.5
2018-May-15 04:05N 29°19' W 094°47'0 0.0
2018-May-15 03:59N 29°19' W 094°47'0 0.0
2018-May-15 03:20N 29°19' W 094°47'0 0.0
2018-May-15 02:17N 29°19' W 094°47'0 0.0
2018-May-15 01:50N 29°19' W 094°47'0 0.0
2018-May-15 01:23N 29°19' W 094°47'0 0.0
2018-May-15 00:56N 29°19' W 094°47'0 0.0
2018-May-14 17:36N 29°19' W 094°47'1 6.4
2018-May-14 17:28N 29°19' W 094°48'0 0.7
2018-May-14 16:58N 29°19' W 094°48'1 0.3
2018-May-14 12:36N 29°19' W 094°47'0 0.8
2018-May-14 12:30N 29°19' W 094°47'2 4.3
2018-May-14 12:00N 29°21' W 094°48'5 9.3
2018-May-14 11:29N 29°23' W 094°53'0 0.1
2018-May-14 08:22N 29°23' W 094°53'0 0.0
2018-May-14 06:40N 29°23' W 094°53'0 0.0
2018-May-14 06:28N 29°23' W 094°53'0 0.0
2018-May-13 23:13N 29°22' W 094°53'0 0.1
2018-May-13 23:00N 29°22' W 094°53'0 0.2
2018-May-13 20:23N 29°22' W 094°53'0 0.3
2018-May-13 20:00N 29°22' W 094°53'0 0.1
2018-May-13 19:30N 29°22' W 094°53'0 0.9
2018-May-13 19:01N 29°22' W 094°54'1 2.0
2018-May-13 18:28N 29°23' W 094°52'5 9.6
2018-May-13 18:00N 29°21' W 094°48'2 0.1
2018-May-13 02:04N 29°19' W 094°47'1 7.5
2018-May-13 01:58N 29°19' W 094°48'0 1.0
2018-May-13 01:29N 29°19' W 094°47'0 0.4
2018-May-13 00:35N 29°19' W 094°47'0 0.2
2018-May-13 00:23N 29°19' W 094°47'3 7.2
2018-May-12 23:55N 29°22' W 094°49'4 3.2
2018-May-12 22:49N 29°22' W 094°53'1 0.1
2018-May-12 18:11N 29°23' W 094°53'0 0.1
2018-May-12 15:54N 29°23' W 094°54'1 1.6
2018-May-12 15:31N 29°22' W 094°53'1 2.6
2018-May-12 14:57N 29°23' W 094°52'510.0
2018-May-12 14:28N 29°21' W 094°47'2 0.5
2018-May-12 10:54N 29°19' W 094°47'0 0.0
2018-May-12 10:28N 29°19' W 094°47'0 0.0
2018-May-12 09:54N 29°19' W 094°47'1 0.1
2018-May-12 00:02N 29°19' W 094°48'0 0.3
2018-May-12 00:00N 29°19' W 094°48'0 0.1
2018-May-11 23:21N 29°19' W 094°48'1 2.6
2018-May-11 23:00N 29°19' W 094°47'0 0.3
2018-May-11 21:11N 29°19' W 094°47'1 5.6
2018-May-11 20:58N 29°19' W 094°48'0 0.6
2018-May-11 20:30N 29°19' W 094°48'1 1.1
2018-May-11 20:01N 29°19' W 094°48'1 1.4
2018-May-11 19:30N 29°19' W 094°49'2 2.9
2018-May-11 18:58N 29°19' W 094°47'0 0.0
2018-May-11 18:25N 29°19' W 094°47'0 0.0
2018-May-11 16:28N 29°19' W 094°47'2 3.4
2018-May-11 16:00N 29°19' W 094°49'0 0.9
2018-May-11 15:30N 29°19' W 094°49'0 1.0
2018-May-11 15:00N 29°19' W 094°49'  

Dump ship's entire track history